createdAt,value
2022-09-22T00:01:50.370Z,7.10
2022-09-22T00:05:10.589Z,6.93
2022-09-22T00:08:32.150Z,7.40
2022-09-22T00:11:54.474Z,6.95
2022-09-22T00:15:15.844Z,8.02
2022-09-22T00:18:38.000Z,7.93
2022-09-22T00:22:02.052Z,7.43
2022-09-22T00:25:23.077Z,7.43
2022-09-22T00:28:44.464Z,8.70
2022-09-22T00:32:07.519Z,6.97
2022-09-22T00:35:29.313Z,6.97
2022-09-22T00:38:50.475Z,7.07
2022-09-22T00:42:12.440Z,6.80
2022-09-22T00:45:33.518Z,7.30
2022-09-22T00:48:55.173Z,7.22
2022-09-22T00:52:20.833Z,6.75
2022-09-22T00:55:42.851Z,6.90
2022-09-22T00:59:06.579Z,6.65
2022-09-22T01:02:26.922Z,6.45
2022-09-22T01:05:47.664Z,7.00
2022-09-22T01:09:09.794Z,6.50
2022-09-22T01:12:30.822Z,6.18
2022-09-22T01:16:12.291Z,6.25
2022-09-22T01:19:55.256Z,6.13
2022-09-22T01:23:38.511Z,5.80
2022-09-22T01:27:32.110Z,5.88
2022-09-22T01:31:08.653Z,5.78
2022-09-22T01:34:34.984Z,6.70
2022-09-22T01:37:59.605Z,6.65
2022-09-22T01:41:22.674Z,6.28
2022-09-22T01:44:46.703Z,5.97
2022-09-22T01:48:13.034Z,6.30
2022-09-22T01:51:36.113Z,6.05
2022-09-22T01:54:59.454Z,6.45
2022-09-22T01:58:25.559Z,6.43
2022-09-22T02:01:50.540Z,6.50
2022-09-22T02:05:14.797Z,6.90
2022-09-22T02:08:39.906Z,7.00
2022-09-22T02:12:19.753Z,7.03
2022-09-22T02:15:58.116Z,6.70
2022-09-22T02:19:22.165Z,6.95
2022-09-22T02:22:42.843Z,6.47
2022-09-22T02:26:03.241Z,6.70
2022-09-22T02:29:24.155Z,7.05
2022-09-22T02:32:46.477Z,7.95
2022-09-22T02:36:12.153Z,7.68
2022-09-22T02:39:39.744Z,9.07
2022-09-22T02:43:25.171Z,6.13
2022-09-22T02:46:47.530Z,7.63
2022-09-22T02:50:10.812Z,8.05
2022-09-22T02:53:41.359Z,6.00
2022-09-22T02:57:01.822Z,5.35
2022-09-22T03:00:22.430Z,5.70
2022-09-22T03:03:42.976Z,5.82
2022-09-22T03:07:03.260Z,5.15
2022-09-22T03:10:24.804Z,4.38
2022-09-22T03:13:45.023Z,4.40
2022-09-22T03:17:05.558Z,4.53
2022-09-22T03:20:25.819Z,4.63
2022-09-22T03:23:46.083Z,4.78
2022-09-22T03:27:07.797Z,5.05
2022-09-22T03:30:28.078Z,6.00
2022-09-22T03:33:52.604Z,6.82
2022-09-22T03:37:13.126Z,6.90
2022-09-22T03:40:33.611Z,7.18
2022-09-22T03:43:55.523Z,8.00
2022-09-22T03:47:15.772Z,8.90
2022-09-22T03:50:36.011Z,8.95
2022-09-22T03:53:56.472Z,9.57
2022-09-22T03:57:16.758Z,9.80
2022-09-22T04:00:38.598Z,10.35
2022-09-22T04:03:58.925Z,10.35
2022-09-22T04:07:19.516Z,9.07
2022-09-22T04:10:39.769Z,8.57
2022-09-22T04:14:01.309Z,7.95
2022-09-22T04:17:23.169Z,8.65
2022-09-22T04:20:44.302Z,8.75
2022-09-22T04:24:08.281Z,8.32
2022-09-22T04:27:28.704Z,10.35
2022-09-22T04:30:49.344Z,10.35
2022-09-22T04:34:11.065Z,8.98
2022-09-22T04:37:31.498Z,8.20
2022-09-22T04:40:53.173Z,7.80
2022-09-22T04:44:13.405Z,10.32
2022-09-22T04:47:33.765Z,9.23
2022-09-22T04:50:55.515Z,7.35
2022-09-22T04:54:16.162Z,8.10
2022-09-22T04:57:36.669Z,6.03
2022-09-22T05:01:02.287Z,5.93
2022-09-22T05:04:22.820Z,10.45
2022-09-22T05:07:45.510Z,6.60
2022-09-22T05:11:09.618Z,5.88
2022-09-22T05:14:31.683Z,5.50
2022-09-22T05:17:52.295Z,6.15
2022-09-22T05:21:13.339Z,5.90
2022-09-22T05:24:34.944Z,4.75
2022-09-22T05:27:55.663Z,4.05
2022-09-22T05:31:17.354Z,4.53
2022-09-22T05:34:37.861Z,5.63
2022-09-22T05:37:58.423Z,4.85
2022-09-22T05:41:20.444Z,4.97
2022-09-22T05:44:40.840Z,5.40
2022-09-22T05:48:01.616Z,6.13
2022-09-22T05:51:22.037Z,8.35
2022-09-22T05:54:42.794Z,6.20
2022-09-22T05:58:04.689Z,5.90
2022-09-22T06:01:25.390Z,5.53
2022-09-22T06:07:15.268Z,5.45
2022-09-22T06:09:42.850Z,5.28
2022-09-22T06:12:10.386Z,5.43
2022-09-22T06:14:38.055Z,6.30
2022-09-22T06:17:08.944Z,6.18
2022-09-22T06:19:36.484Z,5.85
2022-09-22T06:22:04.158Z,6.63
2022-09-22T06:24:33.048Z,6.53
2022-09-22T06:27:00.543Z,6.95
2022-09-22T06:29:28.345Z,7.20
2022-09-22T06:31:56.026Z,4.97
2022-09-22T06:34:24.093Z,4.80
2022-09-22T06:36:51.686Z,5.85
2022-09-22T06:39:19.232Z,4.72
2022-09-22T06:41:49.200Z,4.93
2022-09-22T06:44:16.698Z,4.00
2022-09-22T06:46:45.624Z,4.15
2022-09-22T06:49:13.687Z,3.70
2022-09-22T06:51:41.253Z,3.83
2022-09-22T06:54:08.844Z,4.25
2022-09-22T06:56:39.805Z,4.50
2022-09-22T06:59:11.047Z,4.60
2022-09-22T07:01:39.239Z,4.93
2022-09-22T07:04:06.903Z,5.38
2022-09-22T07:06:35.099Z,5.97
2022-09-22T07:09:02.660Z,5.93
2022-09-22T07:11:30.236Z,6.78
2022-09-22T07:13:58.428Z,7.30
2022-09-22T07:16:27.607Z,7.72
2022-09-22T07:18:56.697Z,8.88
2022-09-22T07:21:27.399Z,8.95
2022-09-22T07:23:56.156Z,8.95
2022-09-22T07:26:26.345Z,8.35
2022-09-22T07:28:54.230Z,8.15
2022-09-22T07:31:28.449Z,8.52
2022-09-22T07:34:00.052Z,8.75
2022-09-22T07:36:28.891Z,8.40
2022-09-22T07:38:57.464Z,9.45
2022-09-22T07:41:27.353Z,8.48
2022-09-22T07:43:56.585Z,8.52
2022-09-22T07:46:24.464Z,8.88
2022-09-22T07:48:52.295Z,8.45
2022-09-22T07:51:22.484Z,8.10
2022-09-22T07:53:50.675Z,7.63
2022-09-22T07:56:21.066Z,8.20
2022-09-22T07:58:49.984Z,7.75
2022-09-22T08:01:18.137Z,8.93
2022-09-22T08:03:46.218Z,8.40
2022-09-22T08:06:14.916Z,7.57
2022-09-22T08:08:46.162Z,7.25
2022-09-22T08:11:15.017Z,7.15
2022-09-22T08:13:44.040Z,6.90
2022-09-22T08:16:11.816Z,7.07
2022-09-22T08:18:40.652Z,7.20
2022-09-22T08:21:08.228Z,7.68
2022-09-22T08:23:37.375Z,7.70
2022-09-22T08:26:08.344Z,7.35
2022-09-22T08:28:36.272Z,7.63
2022-09-22T08:31:04.229Z,8.23
2022-09-22T08:33:32.209Z,8.05
2022-09-22T08:36:03.481Z,8.40
2022-09-22T08:38:31.499Z,9.40
2022-09-22T08:41:19.656Z,8.80
2022-09-22T08:43:52.580Z,7.90
2022-09-22T08:46:20.229Z,8.07
2022-09-22T08:49:05.904Z,6.57
2022-09-22T08:51:55.989Z,6.57
2022-09-22T08:54:26.643Z,7.72
2022-09-22T08:56:59.905Z,7.18
2022-09-22T08:59:31.258Z,5.80
2022-09-22T09:02:04.873Z,6.35
2022-09-22T09:04:45.118Z,5.68
2022-09-22T09:07:16.910Z,5.95
2022-09-22T09:09:50.255Z,5.30
2022-09-22T09:12:41.939Z,5.70
2022-09-22T09:15:22.644Z,5.47
2022-09-22T09:17:51.556Z,5.43
2022-09-22T09:20:21.760Z,5.40
2022-09-22T09:22:52.792Z,5.28
2022-09-22T09:25:24.230Z,5.53
2022-09-22T09:27:55.508Z,4.75
2022-09-22T09:30:24.642Z,4.97
2022-09-22T09:32:53.688Z,4.78
2022-09-22T09:35:26.438Z,5.18
2022-09-22T09:37:55.914Z,5.10
2022-09-22T09:40:23.567Z,5.60
2022-09-22T09:42:54.376Z,5.32
2022-09-22T09:45:26.677Z,5.15
2022-09-22T09:48:03.131Z,4.80
2022-09-22T09:50:32.230Z,5.60
2022-09-22T09:53:00.298Z,5.05
2022-09-22T09:55:28.153Z,4.82
2022-09-22T09:58:02.791Z,5.22
2022-09-22T10:00:32.530Z,5.82
2022-09-22T10:03:21.440Z,5.00
2022-09-22T10:05:56.868Z,4.70
2022-09-22T10:08:24.724Z,4.85
2022-09-22T10:10:56.699Z,5.38
2022-09-22T10:13:27.127Z,6.13
2022-09-22T10:16:18.881Z,5.72
2022-09-22T10:18:46.815Z,4.80
2022-09-22T10:21:16.755Z,5.50
2022-09-22T10:23:44.908Z,5.40
2022-09-22T10:26:17.172Z,5.57
2022-09-22T10:28:50.229Z,5.50
2022-09-22T10:31:21.738Z,4.90
2022-09-22T10:33:56.360Z,5.60
2022-09-22T10:36:26.943Z,5.70
2022-09-22T10:38:58.894Z,5.72
2022-09-22T10:41:33.975Z,5.65
2022-09-22T10:44:20.927Z,5.25
2022-09-22T10:47:00.630Z,5.10
2022-09-22T10:49:37.148Z,4.93
2022-09-22T10:52:09.708Z,5.30
2022-09-22T10:54:52.110Z,5.07
2022-09-22T10:57:29.235Z,5.32
2022-09-22T11:00:03.509Z,5.43
2022-09-22T11:02:41.154Z,5.47
2022-09-22T11:05:42.995Z,6.57
2022-09-22T11:08:31.224Z,5.65
2022-09-22T11:11:21.028Z,6.13
2022-09-22T11:13:57.460Z,5.60
2022-09-22T11:16:33.844Z,5.22
2022-09-22T11:19:14.500Z,5.30
2022-09-22T11:21:47.958Z,5.60
2022-09-22T11:24:22.034Z,5.25
2022-09-22T11:26:49.983Z,4.93
2022-09-22T11:29:32.380Z,5.25
2022-09-22T11:32:02.962Z,5.22
2022-09-22T11:34:40.957Z,5.22
2022-09-22T11:37:26.415Z,5.18
2022-09-22T11:40:11.820Z,4.95
2022-09-22T11:42:47.630Z,5.40
2022-09-22T11:45:20.024Z,5.63
2022-09-22T11:47:58.692Z,5.43
2022-09-22T11:50:40.896Z,5.95
2022-09-22T11:53:23.507Z,5.88
2022-09-22T11:55:56.889Z,5.50
2022-09-22T11:58:28.880Z,5.97
2022-09-22T12:01:00.534Z,6.40
2022-09-22T12:03:31.682Z,5.90
2022-09-22T12:06:01.804Z,6.00
2022-09-22T12:08:31.615Z,5.88
2022-09-22T12:10:59.504Z,5.85
2022-09-22T12:13:29.550Z,5.78
2022-09-22T12:16:00.792Z,5.95
2022-09-22T12:18:32.296Z,5.93
2022-09-22T12:21:01.882Z,5.70
2022-09-22T12:23:39.687Z,5.70
2022-09-22T12:26:08.968Z,6.20
2022-09-22T12:28:42.337Z,5.45
2022-09-22T12:31:12.961Z,5.80
2022-09-22T12:33:46.324Z,5.70
2022-09-22T12:36:14.845Z,5.65
2022-09-22T12:38:42.536Z,5.38
2022-09-22T12:41:10.292Z,5.50
2022-09-22T12:43:37.980Z,6.03
2022-09-22T12:46:14.174Z,5.18
2022-09-22T12:48:44.964Z,5.80
2022-09-22T12:51:16.550Z,5.68
2022-09-22T12:53:44.393Z,5.45
2022-09-22T12:56:30.925Z,5.60
2022-09-22T12:58:58.606Z,6.10
2022-09-22T13:01:44.224Z,5.22
2022-09-22T13:04:18.292Z,4.97
2022-09-22T13:06:56.340Z,5.22
2022-09-22T13:09:25.857Z,4.95
2022-09-22T13:12:22.805Z,4.80
2022-09-22T13:14:57.944Z,4.85
2022-09-22T13:17:39.611Z,4.70
2022-09-22T13:20:34.435Z,4.55
2022-09-22T13:23:06.455Z,4.88
2022-09-22T13:25:33.961Z,5.00
2022-09-22T13:28:06.082Z,4.97
2022-09-22T13:30:33.983Z,4.85
2022-09-22T13:33:01.967Z,5.03
2022-09-22T13:35:30.460Z,5.30
2022-09-22T13:37:58.500Z,5.22
2022-09-22T13:40:28.245Z,4.60
2022-09-22T13:42:58.084Z,5.43
2022-09-22T13:45:27.544Z,4.47
2022-09-22T13:47:56.745Z,4.40
2022-09-22T13:50:25.093Z,4.97
2022-09-22T13:52:52.955Z,4.72
2022-09-22T13:55:23.583Z,4.97
2022-09-22T13:57:54.154Z,4.07
2022-09-22T14:00:24.452Z,3.92
2022-09-22T14:02:52.678Z,4.30
2022-09-22T14:05:21.715Z,7.65
2022-09-22T14:08:10.596Z,4.30
2022-09-22T14:10:38.071Z,4.57
2022-09-22T14:13:26.926Z,4.05
2022-09-22T14:15:55.847Z,3.97
2022-09-22T14:18:26.347Z,4.10
2022-09-22T14:20:55.819Z,4.25
2022-09-22T14:23:27.657Z,4.43
2022-09-22T14:25:55.553Z,4.10
2022-09-22T14:28:32.433Z,4.53
2022-09-22T14:31:01.479Z,4.15
2022-09-22T14:33:30.251Z,3.60
2022-09-22T14:36:01.642Z,3.97
2022-09-22T14:38:30.007Z,3.75
2022-09-22T14:40:58.615Z,3.97
2022-09-22T14:43:27.819Z,3.63
2022-09-22T14:45:59.944Z,3.60
2022-09-22T14:48:33.414Z,5.20
2022-09-22T14:51:02.329Z,4.25
2022-09-22T14:53:31.793Z,3.78
2022-09-22T14:56:04.121Z,4.00
2022-09-22T14:58:37.296Z,4.28
2022-09-22T15:01:32.876Z,3.80
2022-09-22T15:04:03.298Z,4.20
2022-09-22T15:06:37.171Z,4.07
2022-09-22T15:09:05.468Z,4.20
2022-09-22T15:11:49.558Z,3.63
2022-09-22T15:14:33.136Z,3.90
2022-09-22T15:17:21.436Z,3.67
2022-09-22T15:19:53.367Z,3.83
2022-09-22T15:22:20.902Z,4.07
2022-09-22T15:24:49.602Z,3.58
2022-09-22T15:27:17.665Z,4.00
2022-09-22T15:29:45.552Z,4.05
2022-09-22T15:32:13.092Z,3.75
2022-09-22T15:34:42.603Z,4.00
2022-09-22T15:37:14.697Z,3.40
2022-09-22T15:39:43.132Z,3.67
2022-09-22T15:42:12.084Z,3.80
2022-09-22T15:44:39.639Z,4.10
2022-09-22T15:47:10.445Z,3.78
2022-09-22T15:49:37.956Z,3.60
2022-09-22T15:52:05.465Z,3.60
2022-09-22T15:54:34.860Z,3.58
2022-09-22T15:57:04.337Z,3.58
2022-09-22T15:59:32.902Z,3.28
2022-09-22T16:02:01.134Z,3.53
2022-09-22T16:04:33.574Z,3.13
2022-09-22T16:07:03.837Z,3.35
2022-09-22T16:09:31.577Z,3.72
2022-09-22T16:12:00.641Z,3.08
2022-09-22T16:14:28.137Z,3.35
2022-09-22T16:16:55.651Z,3.30
2022-09-22T16:19:23.185Z,3.28
2022-09-22T16:21:51.548Z,3.53
2022-09-22T16:24:22.151Z,3.20
2022-09-22T16:26:50.121Z,3.28
2022-09-22T16:29:19.017Z,3.42
2022-09-22T16:31:46.561Z,3.55
2022-09-22T16:34:14.210Z,3.40
2022-09-22T16:36:43.111Z,3.55
2022-09-22T16:39:10.694Z,4.00
2022-09-22T16:41:38.373Z,3.60
2022-09-22T16:44:06.093Z,3.53
2022-09-22T16:46:35.044Z,4.88
2022-09-22T16:49:04.181Z,3.83
2022-09-22T16:51:33.486Z,3.80
2022-09-22T16:54:01.099Z,7.97
2022-09-22T16:56:29.525Z,3.38
2022-09-22T16:58:57.412Z,3.28
2022-09-22T17:01:25.996Z,3.25
2022-09-22T17:03:55.123Z,3.00
2022-09-22T17:06:24.272Z,4.47
2022-09-22T17:08:53.486Z,3.28
2022-09-22T17:11:21.572Z,3.65
2022-09-22T17:13:50.717Z,3.30
2022-09-22T17:16:20.821Z,3.70
2022-09-22T17:18:50.442Z,3.80
2022-09-22T17:21:21.407Z,3.05
2022-09-22T17:23:49.873Z,3.28
2022-09-22T17:26:17.488Z,3.08
2022-09-22T17:28:45.086Z,3.53
2022-09-22T17:31:12.811Z,2.90
2022-09-22T17:33:46.922Z,6.55
2022-09-22T17:36:19.432Z,7.97
2022-09-22T17:38:50.641Z,3.08
2022-09-22T17:41:19.557Z,3.28
2022-09-22T17:43:48.068Z,3.17
2022-09-22T17:46:16.491Z,3.13
2022-09-22T17:49:02.151Z,2.97
2022-09-22T17:51:48.304Z,2.78
2022-09-22T17:54:37.803Z,3.10
2022-09-22T17:57:06.108Z,3.08
2022-09-22T17:59:33.644Z,3.03
2022-09-22T18:02:01.817Z,3.45
2022-09-22T18:04:29.358Z,3.60
2022-09-22T18:06:57.739Z,3.33
2022-09-22T18:09:26.815Z,3.63
2022-09-22T18:11:54.339Z,3.25
2022-09-22T18:14:21.795Z,3.72
2022-09-22T18:16:49.319Z,3.30
2022-09-22T18:19:16.882Z,4.18
2022-09-22T18:21:45.267Z,6.00
2022-09-22T18:24:19.492Z,6.40
2022-09-22T18:26:48.414Z,5.80
2022-09-22T18:29:17.049Z,5.45
2022-09-22T18:31:45.431Z,5.20
2022-09-22T18:34:12.968Z,5.38
2022-09-22T18:36:40.964Z,5.50
2022-09-22T18:39:09.205Z,5.25
2022-09-22T18:41:37.255Z,5.47
2022-09-22T18:44:06.259Z,9.60
2022-09-22T18:46:34.582Z,6.00
2022-09-22T18:49:06.116Z,5.60
2022-09-22T18:51:34.700Z,6.28
2022-09-22T18:54:06.327Z,6.40
2022-09-22T18:56:34.527Z,6.25
2022-09-22T18:59:02.491Z,8.07
2022-09-22T19:01:34.409Z,7.22
2022-09-22T19:04:02.555Z,6.70
2022-09-22T19:06:50.337Z,6.90
2022-09-22T19:09:18.234Z,7.25
2022-09-22T19:11:46.012Z,6.38
2022-09-22T19:14:17.596Z,6.40
2022-09-22T19:16:48.327Z,6.50
2022-09-22T19:19:16.221Z,5.90
2022-09-22T19:21:43.704Z,6.47
2022-09-22T19:24:11.284Z,5.40
2022-09-22T19:26:38.892Z,5.72
2022-09-22T19:29:07.002Z,5.15
2022-09-22T19:31:35.109Z,5.32
2022-09-22T19:34:04.570Z,5.20
2022-09-22T19:36:32.687Z,5.13
2022-09-22T19:39:00.704Z,6.20
2022-09-22T19:41:28.524Z,5.15
2022-09-22T19:43:56.536Z,6.35
2022-09-22T19:46:24.429Z,5.40
2022-09-22T19:48:52.390Z,7.45
2022-09-22T19:51:22.593Z,4.90
2022-09-22T19:53:51.612Z,5.63
2022-09-22T19:56:20.475Z,5.57
2022-09-22T19:58:48.108Z,6.00
2022-09-22T20:01:26.956Z,5.07
2022-09-22T20:03:54.628Z,4.82
2022-09-22T20:06:23.478Z,5.20
2022-09-22T20:08:55.343Z,5.18
2022-09-22T20:11:26.809Z,4.90
2022-09-22T20:14:11.920Z,4.50
2022-09-22T20:16:41.667Z,4.97
2022-09-22T20:19:12.169Z,5.03
2022-09-22T20:21:42.247Z,5.05
2022-09-22T20:24:11.214Z,4.65
2022-09-22T20:26:38.728Z,4.82
2022-09-22T20:29:06.231Z,4.63
2022-09-22T20:31:33.753Z,4.78
2022-09-22T20:34:01.555Z,5.18
2022-09-22T20:36:29.047Z,5.40
2022-09-22T20:38:59.162Z,5.05
2022-09-22T20:41:27.135Z,4.53
2022-09-22T20:43:54.687Z,4.60
2022-09-22T20:46:22.923Z,5.78
2022-09-22T20:48:53.659Z,5.20
2022-09-22T20:51:21.190Z,4.43
2022-09-22T20:53:48.722Z,4.97
2022-09-22T20:56:17.891Z,4.28
2022-09-22T20:58:46.113Z,4.43
2022-09-22T21:01:14.437Z,4.60
2022-09-22T21:03:42.086Z,5.18
2022-09-22T21:06:10.773Z,4.65
2022-09-22T21:08:56.224Z,4.68
2022-09-22T21:11:25.391Z,4.45
2022-09-22T21:13:53.814Z,5.45
2022-09-22T21:16:21.392Z,4.88
2022-09-22T21:18:51.550Z,4.82
2022-09-22T21:21:19.638Z,4.50
2022-09-22T21:23:48.604Z,5.25
2022-09-22T21:26:16.871Z,4.78
2022-09-22T21:28:46.939Z,4.65
2022-09-22T21:31:14.995Z,5.00
2022-09-22T21:33:42.560Z,4.82
2022-09-22T21:36:13.499Z,5.43
2022-09-22T21:38:41.904Z,5.10
2022-09-22T21:41:10.834Z,4.97
2022-09-22T21:43:38.348Z,5.43
2022-09-22T21:46:08.808Z,5.32
2022-09-22T21:48:36.943Z,4.85
2022-09-22T21:51:05.369Z,4.65
2022-09-22T21:53:33.254Z,4.43
2022-09-22T21:56:01.456Z,4.10
2022-09-22T21:58:29.456Z,3.95
2022-09-22T22:00:57.554Z,4.68
2022-09-22T22:03:33.256Z,4.47
2022-09-22T22:06:06.186Z,4.15
2022-09-22T22:08:37.256Z,4.85
2022-09-22T22:11:06.876Z,4.90
2022-09-22T22:13:35.365Z,4.30
2022-09-22T22:16:03.380Z,4.28
2022-09-22T22:18:32.324Z,5.45
2022-09-22T22:21:01.236Z,4.50
2022-09-22T22:23:29.348Z,4.30
2022-09-22T22:25:57.719Z,4.32
2022-09-22T22:28:25.352Z,4.30
2022-09-22T22:30:52.993Z,3.80
2022-09-22T22:33:21.747Z,4.10
2022-09-22T22:35:51.448Z,4.30
2022-09-22T22:38:18.948Z,3.83
2022-09-22T22:40:46.678Z,4.00
2022-09-22T22:43:14.310Z,5.43
2022-09-22T22:45:44.980Z,4.10
2022-09-22T22:48:12.835Z,3.63
2022-09-22T22:50:40.828Z,3.70
2022-09-22T22:53:11.142Z,3.47
2022-09-22T22:55:39.272Z,3.45
2022-09-22T22:58:07.473Z,3.80
2022-09-22T23:00:35.004Z,4.13
2022-09-22T23:03:02.529Z,5.55
2022-09-22T23:05:30.138Z,3.58
2022-09-22T23:07:57.635Z,3.13
2022-09-22T23:10:26.858Z,3.55
2022-09-22T23:12:55.875Z,3.45
2022-09-22T23:15:24.358Z,3.58
2022-09-22T23:17:51.917Z,2.97
2022-09-22T23:20:19.730Z,3.20
2022-09-22T23:22:49.013Z,3.50
2022-09-22T23:25:16.719Z,3.67
2022-09-22T23:27:49.151Z,3.70
2022-09-22T23:30:17.309Z,3.70
2022-09-22T23:32:45.197Z,3.38
2022-09-22T23:35:13.226Z,3.30
2022-09-22T23:37:40.704Z,2.90
2022-09-22T23:40:08.926Z,3.47
2022-09-22T23:42:36.424Z,3.00
2022-09-22T23:45:06.236Z,3.03
2022-09-22T23:47:34.060Z,3.17
2022-09-22T23:50:01.546Z,2.90
2022-09-22T23:52:29.124Z,2.70
2022-09-22T23:54:56.611Z,2.80
2022-09-22T23:57:24.177Z,3.33
2022-09-22T23:59:51.656Z,2.90
